Terminal Aerodrome Forecast
Issued by NWS

Current Version | Previous Version | Text Only | Print | Product List | Glossary On
Versions: 1 2 3 4 5 6 7 8 9 10 11 12 13 14
840
FTUS42 KMLB 270530
TAFLEE
TAF
KLEE 270530Z 2706/2806 VRB02KT P6SM VCSH BKN050 OVC080
     FM270700 00000KT P6SM SCT080
     FM271400 15005KT P6SM FEW040
     FM271800 12008KT P6SM SCT045
     FM280200 13003KT P6SM SKC=

USA.gov is the U.S. government's official web portal to all federal, state and local government web resources and services.